WetterOnline ( https://www.wetteronline.de )

Wetter aktuell Pfälzer Wald

Aktuelles Wetter: Weinbiet/Pfalz (557m)

6-stündlich | Neueste Meldungen
Ortszeit Temperatur Wetter
Fr, 19.07. 8:00 19.9° C bewölkt
Fr, 19.07. 2:00 20.1° C wolkig
Do, 18.07. 20:00 24.6° C wolkenlos
Do, 18.07. 14:00 25.6° C leicht bewölkt
Do, 18.07. 8:00 17.1° C wolkig
Do, 18.07. 2:00 17.7° C wolkig
Mi, 17.07. 20:00 21.1° C leicht bewölkt
Mi, 17.07. 14:00 21.9° C bewölkt
Ortszeit Temperatur Wetter
Fr, 19.07. 9:00 20.6° C wolkig
Fr, 19.07. 8:30 20.5° C wolkig
Fr, 19.07. 8:20 20.5° C wolkig
Fr, 19.07. 8:10 20.2° C bedeckt
Fr, 19.07. 8:00 19.9° C bewölkt
Fr, 19.07. 7:50 19.9° C bewölkt
Fr, 19.07. 7:30 20.0° C wolkig
Fr, 19.07. 7:00 19.9° C bedeckt
Fr, 19.07. 6:30 19.9° C bedeckt
Fr, 19.07. 6:00 19.9° C bedeckt
Ortszeit Relative Feuchte Sichtweite
Fr, 19.07. 8:00 60% 60 km
Fr, 19.07. 2:00 57% 60 km
Do, 18.07. 20:00 41% >70 km
Do, 18.07. 14:00 49% 45 km
Do, 18.07. 8:00 71% >70 km
Do, 18.07. 2:00 67% 55 km
Mi, 17.07. 20:00 55% 60 km
Mi, 17.07. 14:00 54% >70 km
Ortszeit Relative Feuchte Sichtweite
Fr, 19.07. 9:00 63% >70 km
Fr, 19.07. 8:30 63% 60 km
Fr, 19.07. 8:20 63% -
Fr, 19.07. 8:10 62% -
Fr, 19.07. 8:00 60% 60 km
Fr, 19.07. 7:50 60% -
Fr, 19.07. 7:30 58% >70 km
Fr, 19.07. 7:00 56% 65 km
Fr, 19.07. 6:30 55% 60 km
Fr, 19.07. 6:00 55% 60 km
Ortszeit Niederschlagsmenge Niederschlagsart
Fr, 19.07. 8:00 0.0 l/m2 in 12 Std. -
Fr, 19.07. 2:00 0.0 l/m2 in 6 Std. -
Do, 18.07. 20:00 0.0 l/m2 in 12 Std. -
Do, 18.07. 14:00 0.0 l/m2 in 6 Std. -
Do, 18.07. 8:00 0.0 l/m2 in 12 Std. -
Do, 18.07. 2:00 0.0 l/m2 in 6 Std. -
Mi, 17.07. 20:00 0.0 l/m2 in 12 Std. -
Mi, 17.07. 14:00 0.0 l/m2 in 6 Std. -
Ortszeit Niederschlagsmenge Niederschlagsart
Fr, 19.07. 9:00 keine Meldung -
Fr, 19.07. 8:30 0.0 l/m2 in 30 Min -
Fr, 19.07. 8:20 keine Meldung -
Fr, 19.07. 8:10 keine Meldung -
Fr, 19.07. 8:00 0.0 l/m2 in 1 Std. -
Fr, 19.07. 7:50 keine Meldung -
Fr, 19.07. 7:30 0.0 l/m2 in 30 Min -
Fr, 19.07. 7:00 0.0 l/m2 in 1 Std. -
Fr, 19.07. 6:30 0.0 l/m2 in 30 Min -
Fr, 19.07. 6:00 0.0 l/m2 in 1 Std. -
Ortszeit Stärke Spitze Richtung
km/h Bft. km/h Grad Sektor
Fr, 19.07. 8:00 14 3 25 60° NO
Fr, 19.07. 2:00 18 3 29 50° NO
Do, 18.07. 20:00 11 2 29 60° NO
Do, 18.07. 14:00 11 2 30 100° O
Do, 18.07. 8:00 18 3 32 80° O
Do, 18.07. 2:00 17 3 24 70° O
Mi, 17.07. 20:00 7 2 29 60° NO
Mi, 17.07. 14:00 14 3 36 290° W
Ortszeit Stärke Spitze Richtung
km/h Bft. km/h Grad Sektor
Fr, 19.07. 9:00 13 3 19 60° NO
Fr, 19.07. 8:30 13 3 19 60° NO
Fr, 19.07. 8:20 13 3 - 60° NO
Fr, 19.07. 8:10 14 3 - 50° NO
Fr, 19.07. 8:00 14 3 22 60° NO
Fr, 19.07. 7:50 14 3 - 60° NO
Fr, 19.07. 7:30 14 3 22 50° NO
Fr, 19.07. 7:00 18 3 22 50° NO
Fr, 19.07. 6:30 17 3 19 50° NO
Fr, 19.07. 6:00 14 3 22 60° NO
Ortszeit Untergrenze Bedeckung Gattung
total tief tief mittel hoch
Fr, 19.07. 8:00 5400 m 8/8 6/8 - - -
Fr, 19.07. 2:00 1500 m 7/8 1/8 - - -
Do, 18.07. 20:00 - 0/8 0/8 - - -
Do, 18.07. 14:00 7800 m 8/8 0/8 - - -
Do, 18.07. 8:00 8700 m 8/8 0/8 - - -
Do, 18.07. 2:00 8700 m 8/8 0/8 - - -
Mi, 17.07. 20:00 2100 m 2/8 2/8 - - -
Mi, 17.07. 14:00 1140 m 7/8 7/8 - - -
Ortszeit Bedeckungsgrad in Achtel und Wolkenuntergrenze
Fr, 19.07. 9:00 2(1350m) 8(9000m) 8(10500m)
Fr, 19.07. 8:30 1(1320m) 8(9000m)
Fr, 19.07. 8:20 1(1320m) 8(9000m)
Fr, 19.07. 8:10 8
Fr, 19.07. 8:00 6(5400m) 7(9000m) 8(9000m)
Fr, 19.07. 7:50 6(5400m) 7(9000m) 8(9000m)
Fr, 19.07. 7:30 1(1470m) 8(5400m) 8(9000m)
Fr, 19.07. 7:00 8(5400m) 8(6300m) 8(9000m)
Fr, 19.07. 6:30 8(5400m) 8(6600m) 8(9000m)
Fr, 19.07. 6:00 8(5100m) 8(6600m) 8(9000m)
Ortszeit Luftdruck NN (hPa) Tendenz (hPa in 3 Std.)
Fr, 19.07. 8:00 1019 0,0
Fr, 19.07. 2:00 1021 - 0,2
Do, 18.07. 20:00 1019 - 0,6
Do, 18.07. 14:00 1020 - 0,2
Do, 18.07. 8:00 1022 + 0,6
Do, 18.07. 2:00 1022 0,0
Mi, 17.07. 20:00 1021 + 0,2
Mi, 17.07. 14:00 1020 + 0,3
Ortszeit Luftdruck NN (hPa) Tendenz (hPa in 3 Std.)
Fr, 19.07. 9:00 1019 - 0,2
Fr, 19.07. 8:30 1019 - 0,2
Fr, 19.07. 8:20 1019 keine Meldung
Fr, 19.07. 8:10 1019 keine Meldung
Fr, 19.07. 8:00 1019 0,0
Fr, 19.07. 7:50 1019 keine Meldung
Fr, 19.07. 7:30 1019 - 0,1
Fr, 19.07. 7:00 1019 - 0,3
Fr, 19.07. 6:30 1019 - 0,5
Fr, 19.07. 6:00 1020 - 0,6
Ortszeit Schneehöhe (cm)
Fr, 19.07. 8:00 0
Fr, 19.07. 2:00 0
Do, 18.07. 20:00 0
Do, 18.07. 14:00 0
Do, 18.07. 8:00 0
Do, 18.07. 2:00 0
Mi, 17.07. 20:00 0
Mi, 17.07. 14:00 0
Ortszeit Schneehöhe (cm)
Fr, 19.07. 9:00 -
Fr, 19.07. 8:30 0
Fr, 19.07. 8:20 0
Fr, 19.07. 8:10 -
Fr, 19.07. 8:00 0
Fr, 19.07. 7:50 0
Fr, 19.07. 7:30 0
Fr, 19.07. 7:00 0
Fr, 19.07. 6:30 0
Fr, 19.07. 6:00 0
Link zu dieser Seite / Seite empfehlen

Das Wetter in ...